Time;durP1;ratioP1;P1;durP2;ratioP2;P2;SDS_P1;SDS_P2;PMS_P1;PMS_P2;Temp;Humidity;BMP_temperature;BMP_pressure;BME280_temperature;BME280_humidity;BME280_pressure;Samples;Min_cycle;Max_cycle;Signal;HPM_P1;HPM_P2
2023/03/23 00:02:02;;;;;;;2.72;2.15;;;13.50;99.90;;;;;;5035041;28;20061;-71
2023/03/23 00:04:29;;;;;;;6.88;2.63;;;13.50;99.90;;;;;;5035889;28;20018;-71
2023/03/23 00:06:54;;;;;;;6.13;2.50;;;13.50;99.90;;;;;;5036201;28;20030;-70
2023/03/23 00:09:23;;;;;;;5.60;2.80;;;13.50;99.90;;;;;;5036101;28;20152;-70
2023/03/23 00:11:50;;;;;;;5.75;2.65;;;13.50;99.90;;;;;;5035114;28;20021;-71
2023/03/23 00:14:22;;;;;;;4.75;2.67;;;13.40;99.90;;;;;;5036112;28;20034;-71
2023/03/23 00:16:48;;;;;;;4.32;3.00;;;13.40;99.90;;;;;;5036365;28;20065;-71
2023/03/23 00:19:14;;;;;;;4.93;2.40;;;13.40;99.90;;;;;;5035871;28;20037;-71
2023/03/23 00:21:42;;;;;;;7.47;2.88;;;13.40;99.90;;;;;;5036396;28;20018;-71
2023/03/23 00:24:09;;;;;;;6.47;3.30;;;13.30;99.90;;;;;;5035642;28;20048;-71
2023/03/23 00:26:36;;;;;;;5.50;2.40;;;13.30;99.90;;;;;;5036327;28;20017;-71
2023/03/23 00:29:04;;;;;;;6.35;3.03;;;13.30;99.90;;;;;;5035307;28;20105;-70
2023/03/23 00:31:32;;;;;;;3.10;2.80;;;13.20;99.90;;;;;;5038063;28;20021;-71
2023/03/23 00:34:01;;;;;;;6.60;3.47;;;13.20;99.90;;;;;;5034031;28;20032;-71
2023/03/23 00:36:27;;;;;;;6.57;3.08;;;13.20;99.90;;;;;;5039619;28;20028;-71
2023/03/23 00:38:52;;;;;;;4.22;2.90;;;13.20;99.90;;;;;;5039310;28;20033;-71
2023/03/23 00:41:18;;;;;;;4.13;3.22;;;13.20;99.90;;;;;;5039552;28;20026;-71
2023/03/23 00:43:44;;;;;;;7.60;3.47;;;13.10;99.90;;;;;;5039555;28;20096;-72
2023/03/23 00:46:09;;;;;;;6.60;3.30;;;13.10;99.90;;;;;;5039082;28;20025;-70
2023/03/23 00:48:44;;;;;;;6.20;4.65;;;13.00;99.90;;;;;;5039096;28;20028;-70
2023/03/23 00:51:11;;;;;;;7.22;4.20;;;13.00;99.90;;;;;;5039514;28;20493;-71
2023/03/23 00:53:37;;;;;;;6.32;4.22;;;13.00;99.90;;;;;;5039160;28;20021;-70
2023/03/23 00:56:03;;;;;;;6.32;4.30;;;12.90;99.90;;;;;;5038995;28;21249;-70
2023/03/23 00:58:29;;;;;;;9.73;4.60;;;12.90;99.90;;;;;;5038857;28;20032;-70
2023/03/23 01:00:56;;;;;;;7.45;5.13;;;12.90;99.90;;;;;;5037273;28;20030;-70
2023/03/23 01:03:25;;;;;;;7.63;4.80;;;12.90;99.90;;;;;;5038898;28;20029;-70
2023/03/23 01:05:52;;;;;;;11.50;4.88;;;12.80;99.90;;;;;;5037540;28;20025;-70
2023/03/23 01:08:19;;;;;;;8.55;5.75;;;12.80;99.90;;;;;;5038913;28;20032;-70
2023/03/23 01:10:45;;;;;;;10.40;6.00;;;12.70;99.90;;;;;;5037291;28;20018;-70
2023/03/23 01:13:12;;;;;;;10.65;5.50;;;12.70;99.90;;;;;;5039074;28;20037;-70
2023/03/23 01:15:38;;;;;;;9.88;5.90;;;12.70;99.90;;;;;;5038623;28;20413;-71
2023/03/23 01:18:04;;;;;;;9.18;5.40;;;12.60;99.90;;;;;;5038450;28;20029;-70
2023/03/23 01:20:31;;;;;;;12.73;6.18;;;12.50;99.90;;;;;;5038504;28;20096;-70
2023/03/23 01:23:00;;;;;;;9.27;5.88;;;12.50;99.90;;;;;;5037338;28;20075;-70
2023/03/23 01:25:30;;;;;;;9.52;6.05;;;12.40;99.90;;;;;;5038330;28;20012;-71
2023/03/23 01:27:57;;;;;;;10.45;6.38;;;12.40;99.90;;;;;;5037235;28;20033;-70
2023/03/23 01:30:23;;;;;;;9.15;7.20;;;12.40;99.90;;;;;;5038125;28;20477;-70
2023/03/23 01:32:49;;;;;;;13.07;6.50;;;12.30;99.90;;;;;;5038204;28;20021;-70
2023/03/23 01:35:16;;;;;;;14.88;8.30;;;12.30;99.90;;;;;;5037916;28;20044;-70
2023/03/23 01:37:42;;;;;;;15.30;8.77;;;12.20;99.90;;;;;;5037140;28;20534;-70
2023/03/23 01:40:08;;;;;;;11.02;8.30;;;12.10;99.90;;;;;;5038150;28;20022;-70
2023/03/23 01:42:36;;;;;;;14.85;8.98;;;12.10;99.90;;;;;;5029584;28;20104;-71
2023/03/23 01:45:20;;;;;;;18.10;9.95;;;12.00;99.90;;;;;;5037928;28;20017;-70
2023/03/23 01:47:58;;;;;;;15.05;10.02;;;12.00;99.90;;;;;;5036410;28;20025;-70
2023/03/23 01:50:27;;;;;;;13.27;9.52;;;12.00;99.90;;;;;;5036669;28;20055;-71
2023/03/23 01:52:55;;;;;;;18.90;10.77;;;12.00;99.90;;;;;;5038258;28;20071;-71
2023/03/23 01:55:22;;;;;;;18.17;10.57;;;11.90;99.90;;;;;;5036791;28;20026;-70
2023/03/23 01:57:49;;;;;;;20.30;12.73;;;11.90;99.90;;;;;;5038081;28;20051;-70
2023/03/23 02:00:15;;;;;;;18.52;10.45;;;11.90;99.90;;;;;;5036850;28;20025;-70
2023/03/23 02:02:48;;;;;;;19.33;11.35;;;11.80;99.90;;;;;;5037875;28;20122;-70
2023/03/23 02:05:39;;;;;;;14.38;11.75;;;11.80;99.90;;;;;;5037644;28;20502;-70
2023/03/23 02:08:08;;;;;;;17.60;12.15;;;11.80;99.90;;;;;;5036866;28;20034;-70
2023/03/23 02:10:35;;;;;;;17.63;11.43;;;11.70;99.90;;;;;;5036586;28;20029;-70
2023/03/23 02:13:03;;;;;;;17.33;12.90;;;11.70;99.90;;;;;;5037828;28;20032;-70
2023/03/23 02:15:45;;;;;;;16.00;11.40;;;11.60;99.90;;;;;;5037620;28;20100;-70
2023/03/23 02:18:23;;;;;;;18.25;11.60;;;11.70;99.90;;;;;;5037376;28;20048;-70
2023/03/23 02:21:15;;;;;;;23.23;13.48;;;11.60;99.90;;;;;;5036971;28;20153;-70
2023/03/23 02:23:47;;;;;;;19.08;14.18;;;11.60;99.90;;;;;;5038112;28;20099;-71
2023/03/23 02:26:15;;;;;;;19.77;13.40;;;11.60;99.90;;;;;;5036268;28;20033;-70
2023/03/23 02:28:56;;;;;;;21.63;13.57;;;11.60;99.90;;;;;;5037686;28;20136;-70
2023/03/23 02:31:31;;;;;;;;;;;11.50;99.90;;;;;;5037892;28;20088;-70
2023/03/23 02:34:17;;;;;;;24.25;14.40;;;11.50;99.90;;;;;;5036216;28;19912;-70
2023/03/23 02:36:52;;;;;;;19.88;14.38;;;11.40;99.90;;;;;;5029660;28;20017;-70
2023/03/23 02:39:29;;;;;;;20.73;13.68;;;11.40;99.90;;;;;;5037147;28;20072;-70
2023/03/23 02:42:04;;;;;;;18.55;14.15;;;11.30;99.90;;;;;;5037369;28;20100;-70
2023/03/23 02:44:31;;;;;;;24.33;13.10;;;11.40;99.90;;;;;;5037216;28;20045;-70
2023/03/23 02:47:00;;;;;;;22.85;14.65;;;11.40;99.90;;;;;;5036791;28;20021;-71
2023/03/23 02:49:30;;;;;;;21.05;12.68;;;11.40;99.90;;;;;;5036776;28;20025;-70
2023/03/23 02:51:58;;;;;;;30.95;14.15;;;11.50;99.90;;;;;;5036986;28;20025;-70
2023/03/23 02:54:25;;;;;;;17.90;12.63;;;11.50;99.90;;;;;;5037230;28;20026;-70
2023/03/23 02:56:53;;;;;;;15.45;11.75;;;11.50;99.90;;;;;;5035904;28;20099;-70
2023/03/23 02:59:19;;;;;;;17.25;11.68;;;11.50;99.90;;;;;;5035543;28;20092;-69
2023/03/23 03:01:55;;;;;;;17.98;11.95;;;11.60;99.90;;;;;;5036769;28;20060;-71
2023/03/23 03:04:25;;;;;;;14.98;12.10;;;11.60;99.90;;;;;;5035260;28;20044;-69
2023/03/23 03:07:12;;;;;;;15.27;12.63;;;11.50;99.90;;;;;;5036984;28;20026;-70
2023/03/23 03:09:49;;;;;;;17.05;11.23;;;11.50;99.90;;;;;;5036315;28;20048;-70
2023/03/23 03:12:26;;;;;;;17.00;11.77;;;11.50;99.90;;;;;;5035456;28;20120;-70
2023/03/23 03:15:07;;;;;;;18.50;11.50;;;11.40;99.90;;;;;;5035296;28;20026;-70
2023/03/23 03:17:35;;;;;;;;;;;11.40;99.90;;;;;;5036557;28;20469;-70
2023/03/23 03:20:09;;;;;;;17.55;11.73;;;11.40;99.90;;;;;;5035109;28;19924;-70
2023/03/23 03:22:41;;;;;;;18.80;11.60;;;11.40;99.90;;;;;;5035080;28;20104;-70
2023/03/23 03:25:09;;;;;;;18.05;12.43;;;11.40;99.90;;;;;;5036527;28;20466;-70
2023/03/23 03:27:35;;;;;;;17.48;11.95;;;11.40;99.90;;;;;;5036075;28;20017;-71
2023/03/23 03:30:04;;;;;;;17.30;11.05;;;11.40;99.90;;;;;;5036904;28;20037;-70
2023/03/23 03:32:48;;;;;;;12.85;11.35;;;11.50;99.90;;;;;;5035597;28;20024;-70
2023/03/23 03:35:15;;;;;;;19.52;10.68;;;11.50;99.90;;;;;;5034389;28;20029;-70
2023/03/23 03:37:42;;;;;;;16.15;10.48;;;11.60;99.90;;;;;;5035215;28;20270;-70
2023/03/23 03:40:11;;;;;;;16.35;10.93;;;11.60;99.90;;;;;;5036206;28;20029;-71
2023/03/23 03:42:39;;;;;;;16.95;10.23;;;11.60;99.90;;;;;;5035944;28;20016;-70
2023/03/23 03:45:08;;;;;;;19.42;10.60;;;11.50;99.90;;;;;;5036043;28;20049;-70
2023/03/23 03:47:34;;;;;;;19.05;10.75;;;11.50;99.90;;;;;;5035111;28;20049;-70
2023/03/23 03:49:59;;;;;;;18.35;10.90;;;11.50;99.90;;;;;;5035786;28;20025;-71
2023/03/23 03:52:27;;;;;;;16.35;9.68;;;11.50;99.90;;;;;;5036055;28;20447;-70
2023/03/23 03:54:53;;;;;;;13.55;11.05;;;11.40;99.90;;;;;;5036398;28;20461;-69
2023/03/23 03:57:19;;;;;;;14.35;10.18;;;11.40;99.90;;;;;;5035141;28;20552;-70
2023/03/23 03:59:45;;;;;;;19.35;10.32;;;11.40;99.90;;;;;;5035814;28;20044;-70
2023/03/23 04:02:14;;;;;;;21.50;11.43;;;11.40;99.90;;;;;;5031649;28;20097;-70
2023/03/23 04:04:41;;;;;;;15.50;10.95;;;11.40;99.90;;;;;;5036329;28;20026;-71
2023/03/23 04:07:07;;;;;;;18.95;11.68;;;11.40;99.90;;;;;;5038907;28;20493;-69
2023/03/23 04:09:32;;;;;;;20.30;12.77;;;11.40;99.90;;;;;;5040196;28;20048;-70
2023/03/23 04:11:58;;;;;;;22.33;12.75;;;11.40;99.90;;;;;;5040412;28;20025;-70
2023/03/23 04:14:24;;;;;;;24.17;12.77;;;11.30;99.90;;;;;;5038690;28;20481;-69
2023/03/23 04:16:51;;;;;;;26.17;14.20;;;11.30;99.90;;;;;;5039945;28;20534;-70
2023/03/23 04:19:18;;;;;;;16.13;12.43;;;11.30;99.90;;;;;;5038403;28;20517;-70
2023/03/23 04:21:48;;;;;;;25.60;13.50;;;11.40;99.90;;;;;;5040091;28;20569;-70
2023/03/23 04:24:15;;;;;;;27.67;13.02;;;11.40;99.90;;;;;;5039739;28;20053;-70
2023/03/23 04:26:41;;;;;;;21.77;14.45;;;11.40;99.90;;;;;;5039937;28;20071;-70
2023/03/23 04:29:08;;;;;;;20.85;14.43;;;11.40;99.90;;;;;;5039848;28;20021;-71
2023/03/23 04:31:34;;;;;;;21.77;14.30;;;11.40;99.90;;;;;;5039829;28;20496;-70
2023/03/23 04:34:01;;;;;;;22.17;15.43;;;11.50;99.90;;;;;;5039761;28;20029;-71
2023/03/23 04:36:28;;;;;;;23.00;15.70;;;11.50;99.90;;;;;;5038505;28;20029;-71
2023/03/23 04:38:55;;;;;;;18.95;14.18;;;11.50;99.90;;;;;;5039609;28;20022;-70
2023/03/23 04:41:21;;;;;;;21.10;14.88;;;11.60;99.90;;;;;;5039722;28;20354;-70
2023/03/23 04:43:52;;;;;;;19.77;13.18;;;11.70;99.90;;;;;;5039379;28;20029;-70
2023/03/23 04:46:19;;;;;;;22.45;14.52;;;11.70;99.90;;;;;;5039229;28;20037;-70
2023/03/23 04:48:45;;;;;;;18.92;12.93;;;11.80;99.90;;;;;;5036883;28;20029;-69
2023/03/23 04:51:12;;;;;;;21.35;13.43;;;11.80;99.90;;;;;;5039369;28;20108;-70
2023/03/23 04:53:38;;;;;;;17.45;12.55;;;11.80;99.90;;;;;;5039139;28;20025;-69
2023/03/23 04:56:04;;;;;;;20.33;13.90;;;11.80;99.90;;;;;;5038867;28;20034;-69
2023/03/23 04:58:33;;;;;;;28.02;14.75;;;11.90;99.90;;;;;;5037812;28;20549;-70
2023/03/23 05:00:59;;;;;;;21.15;13.25;;;11.90;99.90;;;;;;5038962;28;20045;-69
2023/03/23 05:03:26;;;;;;;19.88;13.13;;;11.90;99.90;;;;;;5038578;28;20363;-70
2023/03/23 05:05:53;;;;;;;19.63;12.25;;;11.90;99.90;;;;;;5039100;28;20033;-70
2023/03/23 05:08:24;;;;;;;17.50;12.93;;;11.90;99.90;;;;;;5037720;28;20020;-70
2023/03/23 05:10:53;;;;;;;23.52;14.05;;;11.90;99.90;;;;;;5039029;28;20029;-70
2023/03/23 05:13:19;;;;;;;19.63;13.95;;;11.90;99.90;;;;;;5038724;28;20036;-70
2023/03/23 05:15:44;;;;;;;18.00;13.00;;;12.00;99.90;;;;;;5038731;28;20025;-70
2023/03/23 05:18:10;;;;;;;19.15;14.23;;;12.00;99.90;;;;;;5037335;28;20112;-70
2023/03/23 05:20:37;;;;;;;21.17;13.88;;;12.00;99.90;;;;;;5038372;28;20049;-71
2023/03/23 05:23:02;;;;;;;22.20;12.15;;;12.00;99.90;;;;;;5037427;28;20083;-70
2023/03/23 05:25:28;;;;;;;22.63;13.43;;;11.90;99.90;;;;;;5038304;28;20021;-70
2023/03/23 05:27:53;;;;;;;23.55;13.00;;;11.90;99.90;;;;;;5037474;28;20022;-70
2023/03/23 05:30:21;;;;;;;22.63;14.50;;;11.90;99.90;;;;;;5037374;28;20033;-70
2023/03/23 05:32:50;;;;;;;29.02;13.23;;;11.80;99.90;;;;;;5037054;28;20467;-70
2023/03/23 05:35:17;;;;;;;20.30;13.10;;;11.80;99.90;;;;;;5038392;28;20045;-72
2023/03/23 05:37:43;;;;;;;18.88;12.00;;;11.80;99.90;;;;;;5038457;28;20025;-70
2023/03/23 05:40:12;;;;;;;20.10;12.90;;;11.80;99.90;;;;;;5038351;28;20040;-70
2023/03/23 05:42:40;;;;;;;22.17;13.30;;;11.80;99.90;;;;;;5036952;28;20024;-71
2023/03/23 05:45:08;;;;;;;17.23;12.90;;;11.70;99.90;;;;;;5037873;28;20039;-70
2023/03/23 05:47:35;;;;;;;20.10;13.63;;;11.70;99.90;;;;;;5036525;28;20079;-70
2023/03/23 05:50:01;;;;;;;21.88;14.10;;;11.70;99.90;;;;;;5037526;28;20029;-70
2023/03/23 05:52:26;;;;;;;25.40;14.10;;;11.70;99.90;;;;;;5036647;28;20029;-70
2023/03/23 05:54:53;;;;;;;22.27;13.68;;;11.70;99.90;;;;;;5036526;28;20026;-70
2023/03/23 05:57:21;;;;;;;21.10;14.60;;;11.70;99.90;;;;;;5038087;28;20033;-70
2023/03/23 05:59:48;;;;;;;17.63;12.70;;;11.70;99.90;;;;;;5037563;28;20055;-70
2023/03/23 06:02:14;;;;;;;22.08;14.35;;;11.70;99.90;;;;;;5036599;28;20022;-71
2023/03/23 06:04:40;;;;;;;20.80;14.27;;;11.70;99.90;;;;;;5037620;28;20018;-70
2023/03/23 06:07:07;;;;;;;19.42;13.07;;;11.70;99.90;;;;;;5037972;28;20469;-70
2023/03/23 06:09:32;;;;;;;24.95;14.02;;;11.70;99.90;;;;;;5037480;28;20018;-70
2023/03/23 06:11:58;;;;;;;21.38;13.52;;;11.70;99.90;;;;;;5037951;28;20036;-70
2023/03/23 06:14:24;;;;;;;26.05;13.45;;;11.80;99.90;;;;;;5037548;28;20056;-70
2023/03/23 06:16:50;;;;;;;22.63;13.57;;;11.80;99.90;;;;;;5037452;28;20025;-70
2023/03/23 06:19:16;;;;;;;23.00;12.93;;;11.70;99.90;;;;;;5037162;28;20133;-70
2023/03/23 06:21:42;;;;;;;21.90;13.18;;;11.70;99.90;;;;;;5037499;28;20100;-70
2023/03/23 06:24:08;;;;;;;21.45;13.80;;;11.70;99.90;;;;;;5036856;28;20477;-70
2023/03/23 06:26:38;;;;;;;22.15;12.75;;;11.70;99.90;;;;;;5035840;28;20389;-70
2023/03/23 06:29:10;;;;;;;21.42;12.15;;;11.70;99.90;;;;;;5035834;28;20026;-70
2023/03/23 06:31:42;;;;;;;15.55;12.77;;;11.80;99.90;;;;;;5037090;28;20021;-70
2023/03/23 06:34:08;;;;;;;23.35;12.50;;;11.80;99.90;;;;;;5034348;28;20025;-70
2023/03/23 06:36:35;;;;;;;18.83;12.63;;;11.90;99.90;;;;;;5036687;28;20447;-70
2023/03/23 06:39:04;;;;;;;18.70;12.82;;;11.90;99.90;;;;;;5035936;28;20111;-70
2023/03/23 06:41:31;;;;;;;16.92;12.73;;;12.00;99.90;;;;;;5037206;28;20524;-70
2023/03/23 06:43:56;;;;;;;19.75;13.35;;;12.00;99.90;;;;;;5036866;28;20025;-70
2023/03/23 06:46:22;;;;;;;21.23;12.50;;;12.00;99.90;;;;;;5036921;28;20032;-70
2023/03/23 06:48:49;;;;;;;17.20;11.98;;;12.20;99.90;;;;;;5036904;28;20056;-70
2023/03/23 06:51:15;;;;;;;23.95;11.75;;;12.30;99.90;;;;;;5037169;28;20057;-70
2023/03/23 06:53:41;;;;;;;17.95;12.52;;;12.50;99.90;;;;;;5035796;28;20032;-70
2023/03/23 06:56:07;;;;;;;23.15;13.38;;;12.60;99.90;;;;;;5035379;28;20033;-70
2023/03/23 06:58:33;;;;;;;18.08;11.25;;;12.70;99.90;;;;;;5036833;28;20017;-70
2023/03/23 07:00:59;;;;;;;21.70;13.65;;;12.70;99.90;;;;;;5036568;28;20029;-70
2023/03/23 07:03:26;;;;;;;15.40;12.05;;;12.80;99.90;;;;;;5036757;28;20436;-70
2023/03/23 07:05:51;;;;;;;18.88;12.15;;;12.80;99.90;;;;;;5035296;28;20116;-70
2023/03/23 07:08:17;;;;;;;23.83;12.38;;;12.90;99.90;;;;;;5036655;28;20096;-70
2023/03/23 07:10:43;;;;;;;14.93;11.15;;;13.10;99.90;;;;;;5035145;28;20485;-70
2023/03/23 07:13:09;;;;;;;19.85;11.75;;;13.20;99.90;;;;;;5036499;28;20053;-70
2023/03/23 07:15:36;;;;;;;15.10;11.15;;;13.40;99.90;;;;;;5036389;28;20036;-70
2023/03/23 07:18:02;;;;;;;17.40;11.55;;;13.60;99.90;;;;;;5036568;28;20495;-70
2023/03/23 07:20:28;;;;;;;16.30;11.35;;;13.80;99.90;;;;;;5036086;28;20124;-70
2023/03/23 07:22:54;;;;;;;18.00;11.38;;;14.00;99.90;;;;;;5034570;28;20105;-70
2023/03/23 07:25:20;;;;;;;17.83;11.43;;;14.10;99.90;;;;;;5031724;28;20099;-70
2023/03/23 07:27:46;;;;;;;15.48;11.25;;;14.30;99.90;;;;;;5036453;28;20025;-71
2023/03/23 07:30:14;;;;;;;18.02;11.07;;;14.30;99.90;;;;;;5036698;28;20092;-70
2023/03/23 07:32:40;;;;;;;17.30;11.57;;;14.20;99.90;;;;;;5034890;28;20018;-70
2023/03/23 07:35:07;;;;;;;16.25;10.68;;;14.10;99.90;;;;;;5036352;28;20039;-70
2023/03/23 07:37:33;;;;;;;18.42;11.02;;;14.10;99.90;;;;;;5039503;28;20682;-71
2023/03/23 07:39:58;;;;;;;15.73;11.00;;;14.00;99.90;;;;;;5040645;28;20033;-71
2023/03/23 07:42:24;;;;;;;20.58;11.48;;;13.90;99.90;;;;;;5040362;28;20022;-70
2023/03/23 07:44:50;;;;;;;19.00;11.45;;;13.90;99.90;;;;;;5040549;28;20032;-71
2023/03/23 07:47:17;;;;;;;20.67;11.30;;;13.80;99.90;;;;;;5039954;28;20022;-71
2023/03/23 07:49:43;;;;;;;20.20;12.50;;;13.70;99.90;;;;;;5040626;28;20061;-71
2023/03/23 07:52:10;;;;;;;16.38;11.20;;;13.60;99.90;;;;;;5040165;28;20018;-71
2023/03/23 07:54:36;;;;;;;18.15;11.65;;;13.50;99.90;;;;;;5040548;28;20029;-71
2023/03/23 07:57:02;;;;;;;13.30;10.43;;;13.40;99.90;;;;;;5040088;28;20108;-71
2023/03/23 07:59:28;;;;;;;17.95;11.82;;;13.40;99.90;;;;;;5039712;28;20371;-72
2023/03/23 08:01:54;;;;;;;16.75;11.20;;;13.40;99.90;;;;;;5038553;28;20079;-70
2023/03/23 08:04:19;;;;;;;17.17;11.90;;;13.50;99.90;;;;;;5039433;28;20048;-70
2023/03/23 08:06:45;;;;;;;16.30;11.70;;;13.70;99.90;;;;;;5040099;28;20026;-70
2023/03/23 08:09:11;;;;;;;18.42;12.40;;;13.80;99.90;;;;;;5040084;28;20029;-72
2023/03/23 08:11:38;;;;;;;15.93;11.55;;;14.00;99.90;;;;;;5039578;28;20014;-70
2023/03/23 08:14:04;;;;;;;19.80;11.35;;;14.10;99.90;;;;;;5039152;28;20041;-71
2023/03/23 08:16:29;;;;;;;18.63;11.10;;;14.10;99.90;;;;;;5037678;28;20400;-70
2023/03/23 08:18:56;;;;;;;14.73;10.13;;;14.30;99.90;;;;;;5031037;28;20696;-70
2023/03/23 08:21:22;;;;;;;20.08;10.85;;;14.40;99.90;;;;;;5037727;28;20017;-70
2023/03/23 08:23:48;;;;;;;14.93;10.48;;;14.50;99.90;;;;;;5037814;28;20021;-71
2023/03/23 08:26:15;;;;;;;17.92;10.68;;;14.60;99.90;;;;;;5039021;28;20439;-71
2023/03/23 08:28:43;;;;;;;14.02;10.02;;;14.70;99.90;;;;;;5034834;28;20037;-70
2023/03/23 08:31:12;;;;;;;11.88;9.15;;;14.70;99.90;;;;;;5038464;28;20389;-71
2023/03/23 08:33:38;;;;;;;14.30;9.90;;;14.70;99.90;;;;;;5038360;28;20025;-70
2023/03/23 08:36:06;;;;;;;14.13;10.30;;;14.80;99.90;;;;;;5037054;28;20026;-70
2023/03/23 08:38:32;;;;;;;15.10;10.55;;;14.80;99.90;;;;;;5037427;28;20040;-70
2023/03/23 08:40:59;;;;;;;14.70;10.07;;;14.90;99.90;;;;;;5037066;28;20060;-70
2023/03/23 08:43:25;;;;;;;13.88;9.38;;;15.00;99.90;;;;;;5037877;28;20496;-70
2023/03/23 08:45:51;;;;;;;10.82;8.93;;;15.10;99.90;;;;;;5038102;28;20366;-70
2023/03/23 08:48:17;;;;;;;10.23;7.80;;;15.30;99.90;;;;;;5036041;28;20070;-70
2023/03/23 08:50:43;;;;;;;12.65;8.25;;;15.40;99.90;;;;;;5037567;28;20032;-70
2023/03/23 08:53:09;;;;;;;11.05;7.97;;;15.60;99.90;;;;;;5036554;28;20493;-70
2023/03/23 08:55:35;;;;;;;10.45;7.05;;;15.90;99.90;;;;;;5038313;28;20033;-71
2023/03/23 08:58:03;;;;;;;9.55;7.25;;;16.10;99.90;;;;;;5036375;28;20116;-70
2023/03/23 09:00:29;;;;;;;14.55;7.60;;;16.30;99.90;;;;;;5036655;28;20378;-71
2023/03/23 09:02:56;;;;;;;12.77;7.97;;;16.30;99.90;;;;;;5037923;28;20025;-70
2023/03/23 09:05:24;;;;;;;9.18;6.70;;;16.20;99.90;;;;;;5038258;28;20010;-71
2023/03/23 09:07:51;;;;;;;10.63;7.60;;;15.90;99.90;;;;;;5038020;28;20428;-70
2023/03/23 09:10:17;;;;;;;11.52;7.82;;;15.80;99.90;;;;;;5037154;28;20508;-69
2023/03/23 09:12:45;;;;;;;12.75;7.43;;;15.70;99.90;;;;;;5037600;28;20029;-70
2023/03/23 09:15:14;;;;;;;10.70;6.95;;;15.70;99.90;;;;;;5036767;28;20049;-70
2023/03/23 09:17:42;;;;;;;13.10;8.50;;;15.70;99.90;;;;;;5037391;28;20021;-70
2023/03/23 09:20:11;;;;;;;15.98;8.10;;;15.80;99.90;;;;;;5036322;28;20100;-70
2023/03/23 09:22:39;;;;;;;16.35;7.15;;;15.80;99.90;;;;;;5035627;28;20030;-71
2023/03/23 09:25:06;;;;;;;12.63;7.63;;;15.90;99.90;;;;;;5036475;28;20025;-70
2023/03/23 09:27:33;;;;;;;11.23;6.75;;;15.90;99.90;;;;;;5036132;28;20021;-71
2023/03/23 09:30:00;;;;;;;18.55;8.25;;;15.90;99.90;;;;;;5035875;28;20481;-70
2023/03/23 09:32:26;;;;;;;13.43;7.65;;;16.00;99.90;;;;;;5035347;28;20021;-70
2023/03/23 09:34:54;;;;;;;13.98;8.65;;;16.00;99.90;;;;;;5033868;28;20117;-69
2023/03/23 09:37:20;;;;;;;13.50;7.72;;;16.10;99.90;;;;;;5037284;28;20052;-70
2023/03/23 09:39:46;;;;;;;12.88;7.70;;;16.20;99.90;;;;;;5035262;28;20032;-70
2023/03/23 09:42:32;;;;;;;9.50;7.25;;;16.30;99.90;;;;;;5035752;28;20371;-70
2023/03/23 09:45:26;;;;;;;9.52;7.40;;;16.40;99.90;;;;;;5035271;28;20014;-70
2023/03/23 09:48:15;;;;;;;15.23;6.90;;;16.50;99.90;;;;;;5035050;28;20017;-70
2023/03/23 09:50:44;;;;;;;13.85;7.10;;;16.70;99.90;;;;;;5036468;28;20071;-71
2023/03/23 09:53:17;;;;;;;10.43;6.15;;;16.60;99.90;;;;;;5036935;28;20041;-71
2023/03/23 09:55:43;;;;;;;9.80;6.50;;;16.70;99.90;;;;;;5037502;28;20018;-71
2023/03/23 09:58:24;;;;;;;9.65;7.10;;;16.60;99.90;;;;;;5035412;28;20079;-70
2023/03/23 10:01:19;;;;;;;11.32;6.55;;;16.50;99.90;;;;;;5034882;28;20489;-70
2023/03/23 10:03:46;;;;;;;8.13;6.22;;;16.70;99.90;;;;;;5026415;28;20396;-70
2023/03/23 10:06:19;;;;;;;8.30;5.97;;;16.90;99.90;;;;;;5036760;28;20018;-70
2023/03/23 10:08:52;;;;;;;7.80;5.63;;;16.80;99.90;;;;;;5032540;28;20030;-70
2023/03/23 10:11:27;;;;;;;9.85;5.78;;;17.10;99.90;;;;;;5033615;28;20029;-70
2023/03/23 10:14:11;;;;;;;8.10;5.95;;;17.10;99.90;;;;;;5036515;28;20040;-71
2023/03/23 10:16:50;;;;;;;13.30;6.53;;;17.00;99.90;;;;;;5036702;28;20029;-70
2023/03/23 10:19:30;;;;;;;8.77;5.65;;;17.00;99.90;;;;;;5031841;28;20057;-70
2023/03/23 10:22:03;;;;;;;11.50;6.60;;;17.30;99.90;;;;;;5034061;28;20029;-70
2023/03/23 10:24:57;;;;;;;11.43;6.05;;;17.30;99.90;;;;;;5036508;28;20026;-70
2023/03/23 10:27:29;;;;;;;9.98;6.55;;;17.50;99.90;;;;;;5021929;28;20442;-70
2023/03/23 10:30:11;;;;;;;7.10;5.15;;;17.70;99.90;;;;;;5034273;28;20025;-70
2023/03/23 10:33:06;;;;;;;11.23;5.55;;;17.80;99.90;;;;;;5034783;28;20092;-68
2023/03/23 10:35:43;;;;;;;9.55;6.43;;;17.90;99.90;;;;;;5034886;28;20025;-71
2023/03/23 10:38:23;;;;;;;9.82;6.15;;;17.80;99.90;;;;;;5036621;28;21553;-71
2023/03/23 10:41:17;;;;;;;14.93;6.78;;;17.80;99.90;;;;;;5031500;28;20029;-73
2023/03/23 10:43:44;;;;;;;7.68;6.25;;;17.80;99.90;;;;;;5032455;28;20104;-70
2023/03/23 10:46:48;;;;;;;8.65;6.82;;;17.60;99.90;;;;;;5034705;28;20029;-73
2023/03/23 10:49:21;;;;;;;12.55;6.93;;;17.50;99.90;;;;;;5034272;28;20037;-70
2023/03/23 10:52:05;;;;;;;9.60;6.32;;;17.50;99.90;;;;;;5032327;28;20028;-71
2023/03/23 10:54:46;;;;;;;12.25;6.45;;;17.40;99.90;;;;;;5033923;28;20021;-71
2023/03/23 10:57:26;;;;;;;9.73;6.72;;;17.50;99.90;;;;;;5034301;28;20017;-71
2023/03/23 11:00:01;;;;;;;13.05;7.43;;;17.60;99.90;;;;;;5031724;28;20105;-71
2023/03/23 11:02:28;;;;;;;13.82;7.18;;;17.60;99.90;;;;;;5034000;28;20056;-71
2023/03/23 11:05:01;;;;;;;9.52;6.63;;;17.60;99.90;;;;;;5035363;28;20026;-70
2023/03/23 11:07:32;;;;;;;11.63;7.20;;;17.70;99.90;;;;;;5035811;28;20570;-71
2023/03/23 11:10:08;;;;;;;11.50;6.75;;;17.60;99.90;;;;;;5034916;28;20350;-70
2023/03/23 11:12:34;;;;;;;8.80;6.47;;;17.70;99.90;;;;;;5033686;28;20057;-71
2023/03/23 11:15:23;;;;;;;8.50;6.75;;;17.70;99.90;;;;;;5035551;28;20382;-70
2023/03/23 11:18:20;;;;;;;13.73;7.80;;;18.00;99.90;;;;;;5021465;28;20037;-68
2023/03/23 11:20:50;;;;;;;10.57;7.00;;;18.00;99.90;;;;;;5002839;28;20441;-70
2023/03/23 11:23:29;;;;;;;7.85;6.45;;;18.00;99.90;;;;;;5011918;28;20046;-70
2023/03/23 11:26:30;;;;;;;10.20;7.03;;;18.00;99.90;;;;;;5009559;28;20682;-70
2023/03/23 11:29:05;;;;;;;10.77;7.40;;;18.00;99.90;;;;;;5006856;28;20061;-70
2023/03/23 11:31:35;;;;;;;10.48;7.38;;;17.90;99.90;;;;;;5011282;28;20032;-70
2023/03/23 11:34:23;;;;;;;13.30;8.27;;;17.90;99.90;;;;;;5014469;28;20026;-70
2023/03/23 11:36:54;;;;;;;8.68;6.97;;;17.80;99.90;;;;;;5014953;28;20040;-70
2023/03/23 11:39:26;;;;;;;11.48;7.03;;;17.90;99.90;;;;;;5011621;28;20108;-70
2023/03/23 11:41:53;;;;;;;8.45;6.72;;;17.90;99.90;;;;;;5012216;28;20026;-70
2023/03/23 11:44:21;;;;;;;12.85;8.05;;;18.00;99.90;;;;;;5015985;28;20018;-70
2023/03/23 11:46:51;;;;;;;13.05;7.95;;;17.90;99.90;;;;;;5026016;28;20026;-70
2023/03/23 11:49:35;;;;;;;9.95;7.32;;;17.90;99.90;;;;;;5013267;28;20113;-70
2023/03/23 11:52:33;;;;;;;12.15;7.93;;;18.00;99.90;;;;;;5012522;28;20386;-70
2023/03/23 11:55:30;;;;;;;10.75;7.25;;;18.00;99.90;;;;;;5009901;28;20113;-70
2023/03/23 11:58:00;;;;;;;12.50;7.43;;;18.20;99.90;;;;;;5014588;28;20042;-67
2023/03/23 12:00:28;;;;;;;10.82;8.02;;;18.00;99.90;;;;;;5014466;28;20057;-67
2023/03/23 12:03:33;;;;;;;10.88;7.68;;;18.10;99.90;;;;;;5015373;28;20021;-67
2023/03/23 12:06:02;;;;;;;12.07;7.93;;;18.10;99.90;;;;;;5011597;28;20064;-67
2023/03/23 12:08:57;;;;;;;15.30;8.57;;;18.30;99.90;;;;;;5013507;28;20048;-67
2023/03/23 12:11:48;;;;;;;12.50;7.65;;;18.40;99.90;;;;;;5012823;28;20033;-70
2023/03/23 12:14:38;;;;;;;14.10;6.88;;;18.50;99.90;;;;;;5015651;28;20099;-68
2023/03/23 12:17:32;;;;;;;18.57;8.20;;;18.40;99.90;;;;;;5013216;28;20034;-69
2023/03/23 12:20:17;;;;;;;15.13;8.20;;;18.30;99.90;;;;;;5010960;28;20042;-67
2023/03/23 12:22:45;;;;;;;12.35;6.95;;;18.40;99.90;;;;;;5013623;28;20029;-67
2023/03/23 12:25:29;;;;;;;19.52;7.38;;;18.40;99.90;;;;;;5018656;28;20022;-67
2023/03/23 12:27:58;;;;;;;12.50;7.05;;;18.40;99.90;;;;;;5016042;28;20029;-70
2023/03/23 12:30:38;;;;;;;10.60;7.13;;;18.40;99.90;;;;;;5016507;28;20042;-67
2023/03/23 12:33:04;;;;;;;8.60;6.60;;;18.70;99.90;;;;;;5015218;28;20026;-68
2023/03/23 12:35:59;;;;;;;13.90;7.93;;;18.60;99.90;;;;;;5011371;28;20337;-68
2023/03/23 12:38:54;;;;;;;11.13;6.88;;;18.50;99.90;;;;;;5014290;28;20157;-67
2023/03/23 12:41:32;;;;;;;16.60;7.78;;;18.60;99.90;;;;;;5018483;28;20101;-67
2023/03/23 12:43:59;;;;;;;13.85;7.05;;;18.60;99.90;;;;;;5017006;28;20053;-68
2023/03/23 12:46:34;;;;;;;10.70;6.68;;;18.60;99.90;;;;;;5012137;28;20080;-68
2023/03/23 12:49:13;;;;;;;12.77;7.72;;;18.70;99.90;;;;;;5015725;28;20053;-67
2023/03/23 12:52:13;;;;;;;14.00;7.63;;;18.80;99.90;;;;;;5018651;28;20026;-67